This is the latest recevied weather packets stored in our database for station/object SR9SMR. If no packets are shown the sender has not sent any weather packets the latest 1 day(s).
| Time | Temp. | Humidity | Pressure | Rain* | Wind** | Luminosity | Snow |
|---|---|---|---|---|---|---|---|
| 1777988177 | 18.89° C | 100% | 895.3 hPa | - | 8.05 m/s, 211° | - | - |
| 1777988171 | 18.33° C | 100% | 895 hPa | - | 8.05 m/s, 211° | - | - |
| 1777987869 | 18.89° C | 100% | 894.5 hPa | - | 9.83 m/s, 206° | - | - |
| 1777987567 | 19.44° C | 100% | 895.1 hPa | - | 9.39 m/s, 210° | - | - |
| 1777987265 | 19.44° C | 100% | 895.3 hPa | - | 8.94 m/s, 214° | - | - |
| 1777986962 | 19.44° C | 100% | 895.4 hPa | - | 8.94 m/s, 209° | - | - |
| 1777986658 | 19.44° C | 100% | 895.1 hPa | - | 9.83 m/s, 216° | - | - |
| 1777986564 | 19.44° C | 100% | 895.1 hPa | - | 10.73 m/s, 219° | - | - |
| 1777986440 | 19.44° C | 100% | 895.2 hPa | - | 9.83 m/s, 214° | - | - |
| 1777986380 | 19.44° C | 100% | 895.2 hPa | - | 9.83 m/s, 213° | - | - |
| 1777986318 | 19.44° C | 100% | 895.5 hPa | - | 9.83 m/s, 213° | - | - |
| 1777986261 | 18.89° C | 100% | 895.3 hPa | - | 9.83 m/s, 213° | - | - |
| 1777986197 | 18.89° C | 100% | 895.4 hPa | - | 9.83 m/s, 213° | - | - |
| 1777986140 | 18.89° C | 100% | 895.4 hPa | - | 9.39 m/s, 213° | - | - |
| 1777986075 | 19.44° C | 100% | 895.5 hPa | - | 9.39 m/s, 211° | - | - |
| 1777985948 | 19.44° C | 100% | 895.4 hPa | - | 10.28 m/s, 213° | - | - |
| 1777985827 | 19.44° C | 100% | 895.1 hPa | - | 10.28 m/s, 212° | - | - |
| 1777985767 | 18.89° C | 100% | 895.3 hPa | - | 9.83 m/s, 210° | - | - |
| 1777985706 | 18.89° C | 100% | 895.5 hPa | - | 9.83 m/s, 213° | - | - |
| 1777985586 | 19.44° C | 100% | 895.5 hPa | - | 10.28 m/s, 214° | - | - |
| 1777985465 | 19.44° C | 100% | 895.7 hPa | - | 9.83 m/s, 212° | - | - |
| 1777985343 | 18.89° C | 100% | 895.6 hPa | - | 10.73 m/s, 200° | - | - |
| 1777985226 | 18.89° C | 100% | 895.3 hPa | - | 10.73 m/s, 205° | - | - |
| 1777985223 | 18.89° C | 100% | 895.2 hPa | - | 10.73 m/s, 205° | - | - |
| 1777985162 | 18.89° C | 100% | 895.2 hPa | - | 10.73 m/s, 213° | - | - |
* Rain since midnight (hover to see other rain measurements)
** Current wind speed in m/s (hover to see current wind gust speed)